Time;durP1;ratioP1;P1;durP2;ratioP2;P2;SDS_P1;SDS_P2;PMS_P1;PMS_P2;Temp;Humidity;BMP_temperature;BMP_pressure;BME280_temperature;BME280_humidity;BME280_pressure;Samples;Min_cycle;Max_cycle;Signal;HPM_P1;HPM_P2
2021/01/28 00:00:18;;;;;;;24.58;10.75;;;2.30;99.90;;;;;;5074300;28;20389;-76
2021/01/28 00:02:43;;;;;;;26.02;9.57;;;2.20;99.90;;;;;;5073129;28;20078;-76
2021/01/28 00:05:09;;;;;;;34.97;10.48;;;2.10;99.90;;;;;;5072910;28;20029;-76
2021/01/28 00:07:35;;;;;;;42.72;12.25;;;2.00;99.90;;;;;;5073015;28;20024;-76
2021/01/28 00:10:02;;;;;;;39.30;11.82;;;1.90;99.90;;;;;;5086565;28;20035;-76
2021/01/28 00:12:27;;;;;;;44.25;11.32;;;2.00;99.90;;;;;;5091605;28;20111;-76
2021/01/28 00:14:53;;;;;;;33.33;11.07;;;1.90;99.90;;;;;;5091176;28;20206;-76
2021/01/28 00:17:18;;;;;;;35.30;10.77;;;1.80;99.90;;;;;;5093073;28;20039;-76
2021/01/28 00:19:44;;;;;;;32.50;11.38;;;1.70;99.90;;;;;;5084370;28;20416;-76
2021/01/28 00:22:09;;;;;;;28.13;10.57;;;1.70;99.90;;;;;;5072818;28;20525;-76
2021/01/28 00:24:36;;;;;;;30.25;11.13;;;1.70;99.90;;;;;;5072549;28;20021;-76
2021/01/28 00:27:01;;;;;;;30.77;11.48;;;1.60;99.90;;;;;;5072568;28;20476;-77
2021/01/28 00:29:27;;;;;;;40.88;11.27;;;1.50;99.90;;;;;;5072790;28;20047;-76
2021/01/28 00:31:53;;;;;;;33.75;11.68;;;1.40;99.90;;;;;;5072675;28;20032;-76
2021/01/28 00:34:19;;;;;;;33.78;11.43;;;1.40;99.90;;;;;;5072349;28;20073;-76
2021/01/28 00:36:45;;;;;;;25.55;9.98;;;1.40;99.90;;;;;;5072414;28;20028;-76
2021/01/28 00:39:10;;;;;;;30.95;10.07;;;1.40;99.90;;;;;;5078919;28;20101;-76
2021/01/28 00:41:36;;;;;;;26.75;10.35;;;1.40;99.90;;;;;;5092543;28;20043;-76
2021/01/28 00:44:02;;;;;;;37.45;11.70;;;1.50;99.90;;;;;;5092129;28;20104;-76
2021/01/28 00:46:27;;;;;;;29.65;11.20;;;1.50;99.90;;;;;;5092651;28;20042;-76
2021/01/28 00:48:53;;;;;;;30.98;10.70;;;1.50;99.90;;;;;;5090889;28;20030;-76
2021/01/28 00:51:19;;;;;;;20.27;9.13;;;1.50;99.90;;;;;;5072314;28;20025;-76
2021/01/28 00:53:44;;;;;;;30.38;10.20;;;1.60;99.90;;;;;;5071127;28;20024;-76
2021/01/28 00:56:10;;;;;;;16.55;8.43;;;1.60;99.90;;;;;;5071993;28;20039;-76
2021/01/28 00:58:35;;;;;;;21.08;9.57;;;1.60;99.90;;;;;;5076233;28;20028;-76
2021/01/28 01:01:01;;;;;;;24.70;8.18;;;1.50;99.90;;;;;;5092378;28;20083;-76
2021/01/28 01:03:28;;;;;;;16.75;8.85;;;1.50;99.90;;;;;;5092254;28;20016;-76
2021/01/28 01:05:54;;;;;;;18.65;8.18;;;1.50;99.90;;;;;;5092146;28;20420;-76
2021/01/28 01:08:30;;;;;;;21.10;9.70;;;1.50;99.90;;;;;;5092128;28;20024;-76
2021/01/28 01:10:59;;;;;;;16.90;8.45;;;1.50;99.90;;;;;;5091706;28;20094;-76
2021/01/28 01:13:28;;;;;;;18.00;8.63;;;1.50;99.90;;;;;;5091773;28;20646;-76
2021/01/28 01:15:54;;;;;;;17.75;10.00;;;1.50;99.90;;;;;;5090591;28;20127;-76
2021/01/28 01:18:24;;;;;;;12.73;8.50;;;1.40;99.90;;;;;;5090832;28;20119;-76
2021/01/28 01:20:50;;;;;;;14.65;8.70;;;1.40;99.90;;;;;;5074320;28;20025;-77
2021/01/28 01:23:16;;;;;;;17.45;9.07;;;1.40;99.90;;;;;;5071809;28;20031;-76
2021/01/28 01:25:41;;;;;;;11.68;8.10;;;1.40;99.90;;;;;;5071550;28;20025;-76
2021/01/28 01:28:07;;;;;;;10.75;7.45;;;1.40;99.90;;;;;;5072180;28;20515;-76
2021/01/28 01:30:34;;;;;;;14.43;8.57;;;1.40;99.90;;;;;;5090817;28;20391;-76
2021/01/28 01:33:00;;;;;;;16.00;8.65;;;1.40;99.90;;;;;;5091769;28;20450;-76
2021/01/28 01:35:26;;;;;;;14.60;8.23;;;1.40;99.90;;;;;;5091818;28;20020;-76
2021/01/28 01:37:54;;;;;;;12.02;8.07;;;1.40;99.90;;;;;;5091694;28;20028;-76
2021/01/28 01:40:33;;;;;;;11.95;7.47;;;1.50;99.90;;;;;;5074525;28;20439;-76
2021/01/28 01:42:59;;;;;;;16.55;8.55;;;1.50;99.90;;;;;;5070207;28;20059;-76
2021/01/28 01:45:32;;;;;;;12.90;8.15;;;1.50;99.90;;;;;;5071454;28;20107;-76
2021/01/28 01:48:03;;;;;;;14.18;8.52;;;1.40;99.90;;;;;;5071700;28;20572;-77
2021/01/28 01:50:54;;;;;;;10.77;8.07;;;1.40;99.90;;;;;;5085843;28;20032;-76
2021/01/28 01:53:25;;;;;;;14.48;8.20;;;1.30;99.90;;;;;;5090546;28;20263;-76
2021/01/28 01:56:32;;;;;;;14.10;9.10;;;1.20;99.90;;;;;;5090305;28;20028;-76
2021/01/28 01:58:58;;;;;;;11.95;8.20;;;1.10;99.90;;;;;;5083085;28;20055;-77
2021/01/28 02:01:27;;;;;;;13.30;9.10;;;1.10;99.90;;;;;;5071521;28;20713;-76
2021/01/28 02:03:54;;;;;;;13.02;7.97;;;1.00;99.90;;;;;;5070007;28;20565;-76
2021/01/28 02:06:28;;;;;;;11.07;7.50;;;0.90;99.90;;;;;;5074311;28;20059;-76
2021/01/28 02:08:55;;;;;;;11.95;8.02;;;0.70;99.90;;;;;;5078151;28;20019;-76
2021/01/28 02:11:21;;;;;;;11.50;7.43;;;0.60;99.90;;;;;;5095614;28;20020;-76
2021/01/28 02:13:49;;;;;;;14.35;8.15;;;0.50;99.90;;;;;;5094886;28;20031;-76
2021/01/28 02:16:18;;;;;;;11.68;8.07;;;0.40;99.90;;;;;;5095453;28;20480;-76
2021/01/28 02:18:44;;;;;;;11.07;7.88;;;0.40;99.90;;;;;;5093827;28;20031;-76
2021/01/28 02:21:33;;;;;;;11.50;7.70;;;0.30;99.90;;;;;;5095449;28;20058;-76
2021/01/28 02:24:10;;;;;;;12.90;8.25;;;0.20;99.90;;;;;;5095081;28;20406;-76
2021/01/28 02:26:38;;;;;;;10.45;7.20;;;0.10;99.90;;;;;;5095413;28;20102;-76
2021/01/28 02:29:06;;;;;;;14.10;8.52;;;0.00;99.90;;;;;;5076161;28;20032;-77
2021/01/28 02:31:31;;;;;;;11.60;7.90;;;-0.20;99.90;;;;;;5074946;28;20469;-76
2021/01/28 02:33:58;;;;;;;13.07;7.93;;;-0.20;99.90;;;;;;5074647;28;20028;-76
2021/01/28 02:36:29;;;;;;;12.45;8.02;;;-0.30;99.90;;;;;;5074632;28;20067;-76
2021/01/28 02:38:55;;;;;;;15.27;8.43;;;-0.30;99.90;;;;;;5088103;28;20048;-76
2021/01/28 02:41:20;;;;;;;13.98;8.32;;;-0.50;99.90;;;;;;5095118;28;20067;-76
2021/01/28 02:43:46;;;;;;;13.32;8.57;;;-0.50;99.90;;;;;;5093215;28;20059;-77
2021/01/28 02:46:14;;;;;;;12.52;8.15;;;-0.50;99.90;;;;;;5093639;28;20031;-76
2021/01/28 02:48:40;;;;;;;13.20;8.60;;;-0.60;99.90;;;;;;5086052;28;20016;-76
2021/01/28 02:51:07;;;;;;;12.60;8.18;;;-0.70;99.90;;;;;;5074591;28;20044;-77
2021/01/28 02:53:41;;;;;;;16.48;9.60;;;-0.60;99.90;;;;;;5073275;28;20111;-76
2021/01/28 02:56:07;;;;;;;14.95;8.95;;;-0.60;99.90;;;;;;5074483;28;20060;-76
2021/01/28 02:58:33;;;;;;;15.68;8.77;;;-0.60;99.90;;;;;;5078730;28;20033;-76
2021/01/28 03:00:59;;;;;;;13.75;9.07;;;-0.60;99.90;;;;;;5093417;28;20020;-76
2021/01/28 03:03:25;;;;;;;14.02;8.95;;;-0.70;99.90;;;;;;5094489;28;20381;-76
2021/01/28 03:05:51;;;;;;;11.18;7.95;;;-0.70;99.90;;;;;;5094439;28;20054;-76
2021/01/28 03:08:18;;;;;;;15.07;9.05;;;-0.80;99.90;;;;;;5094531;28;20031;-77
2021/01/28 03:10:44;;;;;;;14.32;9.30;;;-0.90;99.90;;;;;;5073262;28;20531;-76
2021/01/28 03:13:11;;;;;;;16.55;9.82;;;-1.00;99.90;;;;;;5074165;28;20039;-76
2021/01/28 03:15:36;;;;;;;15.32;8.38;;;-0.90;99.90;;;;;;5073919;28;20040;-76
2021/01/28 03:18:03;;;;;;;13.55;9.23;;;-0.90;99.90;;;;;;5073103;28;20031;-76
2021/01/28 03:20:29;;;;;;;13.63;9.35;;;-1.00;99.90;;;;;;5088623;28;20024;-76
2021/01/28 03:22:57;;;;;;;14.18;8.48;;;-1.00;99.90;;;;;;5092170;28;20020;-76
2021/01/28 03:25:23;;;;;;;14.82;8.40;;;-1.10;99.90;;;;;;5091760;28;20061;-76
2021/01/28 03:27:49;;;;;;;14.15;9.35;;;-1.20;99.90;;;;;;5094258;28;20387;-76
2021/01/28 03:30:18;;;;;;;15.35;8.55;;;-1.20;99.90;;;;;;5075523;28;20024;-76
2021/01/28 03:32:44;;;;;;;15.30;8.90;;;-1.30;99.90;;;;;;5072426;28;20480;-76
2021/01/28 03:35:10;;;;;;;17.58;9.52;;;-1.30;99.90;;;;;;5072374;28;20026;-76
2021/01/28 03:37:36;;;;;;;17.27;10.48;;;-1.30;99.90;;;;;;5073650;28;20082;-76
2021/01/28 03:40:03;;;;;;;17.30;9.50;;;-1.40;99.90;;;;;;5086099;28;20028;-76
2021/01/28 03:42:29;;;;;;;19.80;11.20;;;-1.40;99.90;;;;;;5093794;28;20040;-76
2021/01/28 03:44:55;;;;;;;17.17;9.80;;;-1.40;99.90;;;;;;5091734;28;20028;-76
2021/01/28 03:47:20;;;;;;;20.45;10.32;;;-1.50;99.90;;;;;;5093786;28;20124;-76
2021/01/28 03:49:46;;;;;;;18.98;10.65;;;-1.50;99.90;;;;;;5085051;28;20024;-76
2021/01/28 03:52:11;;;;;;;22.98;11.60;;;-1.50;99.90;;;;;;5073537;28;20393;-75
2021/01/28 03:54:37;;;;;;;16.05;10.32;;;-1.60;99.90;;;;;;5073205;28;20431;-76
2021/01/28 03:57:04;;;;;;;18.30;10.10;;;-1.70;99.90;;;;;;5073349;28;20036;-75
2021/01/28 03:59:30;;;;;;;18.60;11.13;;;-1.70;99.90;;;;;;5085226;28;20028;-76
2021/01/28 04:01:55;;;;;;;17.52;10.85;;;-1.70;99.90;;;;;;5092236;28;20081;-76
2021/01/28 04:04:21;;;;;;;16.98;9.43;;;-1.80;99.90;;;;;;5093302;28;20070;-76
2021/01/28 04:06:47;;;;;;;20.67;11.32;;;-1.90;99.90;;;;;;5093462;28;20027;-76
2021/01/28 04:09:12;;;;;;;17.42;9.98;;;-1.90;99.90;;;;;;5086440;28;20033;-75
2021/01/28 04:11:38;;;;;;;16.85;9.48;;;-2.00;99.90;;;;;;5071894;28;20028;-76
2021/01/28 04:14:03;;;;;;;15.82;9.98;;;-2.00;99.90;;;;;;5072833;28;20422;-76
2021/01/28 04:16:29;;;;;;;15.68;8.93;;;-2.10;99.90;;;;;;5072918;28;20396;-76
2021/01/28 04:18:54;;;;;;;18.63;10.90;;;-2.20;99.90;;;;;;5074001;28;20035;-76
2021/01/28 04:21:20;;;;;;;18.85;9.30;;;-2.20;99.90;;;;;;5093228;28;20073;-76
2021/01/28 04:23:46;;;;;;;18.58;10.30;;;-2.20;99.90;;;;;;5092879;28;20024;-76
2021/01/28 04:26:11;;;;;;;18.00;10.15;;;-2.10;99.90;;;;;;5091828;28;20443;-75
2021/01/28 04:28:37;;;;;;;19.13;11.15;;;-2.10;99.90;;;;;;5087969;28;20062;-75
2021/01/28 04:31:03;;;;;;;24.35;10.73;;;-2.10;99.90;;;;;;5072608;28;20099;-75
2021/01/28 04:33:28;;;;;;;21.00;11.25;;;-2.10;99.90;;;;;;5072590;28;20079;-75
2021/01/28 04:35:54;;;;;;;22.65;11.20;;;-2.10;99.90;;;;;;5072502;28;20025;-76
2021/01/28 04:38:19;;;;;;;19.35;12.38;;;-2.00;99.90;;;;;;5072516;28;20127;-75
2021/01/28 04:40:49;;;;;;;21.65;11.15;;;-2.00;99.90;;;;;;5091679;28;20024;-76
2021/01/28 04:43:23;;;;;;;18.67;10.82;;;-1.90;99.90;;;;;;5092353;28;20099;-75
2021/01/28 04:45:50;;;;;;;;;;;-2.00;99.90;;;;;;5092994;28;20020;-75
2021/01/28 04:48:16;;;;;;;21.88;11.23;;;-2.00;99.90;;;;;;5092690;28;19904;-75
2021/01/28 04:50:43;;;;;;;23.08;11.48;;;-2.00;99.90;;;;;;5074824;28;20025;-76
2021/01/28 04:53:31;;;;;;;23.63;11.30;;;-2.20;99.90;;;;;;5072219;28;20080;-75
2021/01/28 04:56:00;;;;;;;19.65;10.77;;;-2.30;99.90;;;;;;5072063;28;20047;-75
2021/01/28 04:58:26;;;;;;;18.98;11.00;;;-2.40;99.90;;;;;;5074832;28;20403;-75
2021/01/28 05:00:52;;;;;;;17.45;10.10;;;-2.50;99.90;;;;;;5092160;28;20049;-75
2021/01/28 05:03:23;;;;;;;20.30;11.52;;;-2.60;99.90;;;;;;5092384;28;20078;-75
2021/01/28 05:05:54;;;;;;;23.40;13.00;;;-2.60;99.90;;;;;;5092303;28;20043;-75
2021/01/28 05:08:21;;;;;;;21.50;11.68;;;-2.70;99.90;;;;;;5091069;28;20030;-75
2021/01/28 05:10:49;;;;;;;21.38;10.20;;;-2.70;99.90;;;;;;5073039;28;20415;-75
2021/01/28 05:13:30;;;;;;;20.98;10.82;;;-2.80;99.90;;;;;;5073210;28;20148;-75
2021/01/28 05:16:18;;;;;;;22.27;11.93;;;-2.80;99.90;;;;;;5092007;28;20027;-75
2021/01/28 05:19:03;;;;;;;24.00;11.13;;;-2.70;99.90;;;;;;5070629;28;20051;-75
2021/01/28 05:21:37;;;;;;;18.73;10.57;;;-2.80;99.90;;;;;;5072029;28;20032;-75
2021/01/28 05:24:08;;;;;;;21.00;10.68;;;-2.90;99.90;;;;;;5071779;28;20028;-75
2021/01/28 05:26:36;;;;;;;20.00;11.20;;;-2.80;99.90;;;;;;5071859;28;20094;-75
2021/01/28 05:29:26;;;;;;;22.92;11.55;;;-2.90;99.90;;;;;;5090128;28;20020;-75
2021/01/28 05:31:55;;;;;;;24.48;11.98;;;-2.90;99.90;;;;;;5092129;28;20024;-75
2021/01/28 05:34:30;;;;;;;25.02;12.25;;;-3.00;99.90;;;;;;5091783;28;20024;-75
2021/01/28 05:37:02;;;;;;;25.98;13.02;;;-2.90;99.90;;;;;;5091932;28;20020;-75
2021/01/28 05:39:38;;;;;;;26.67;14.23;;;-2.90;99.90;;;;;;5071655;28;20516;-75
2021/01/28 05:42:25;;;;;;;24.17;13.27;;;-2.80;99.90;;;;;;5071741;28;20032;-75
2021/01/28 05:44:51;;;;;;;24.48;12.73;;;-2.70;99.90;;;;;;5071560;28;20028;-75
2021/01/28 05:47:30;;;;;;;27.05;13.95;;;-2.70;99.90;;;;;;5071615;28;20028;-75
2021/01/28 05:50:21;;;;;;;27.25;13.65;;;-2.70;99.90;;;;;;5071683;28;20496;-75
2021/01/28 05:52:47;;;;;;;27.35;13.38;;;-2.70;99.90;;;;;;5068169;28;20048;-75
2021/01/28 05:55:19;;;;;;;31.23;13.68;;;-2.70;99.90;;;;;;5086845;28;20029;-75
2021/01/28 05:57:53;;;;;;;24.58;12.93;;;-2.70;99.90;;;;;;5071428;28;20406;-75
2021/01/28 06:00:30;;;;;;;28.92;13.50;;;-2.70;99.90;;;;;;5089964;28;20059;-75
2021/01/28 06:03:22;;;;;;;27.25;12.15;;;-2.80;99.90;;;;;;5091674;28;20556;-75
2021/01/28 06:05:53;;;;;;;23.60;12.25;;;-2.90;99.90;;;;;;5090321;28;20412;-75
2021/01/28 06:08:34;;;;;;;24.63;12.70;;;-2.90;99.90;;;;;;5090018;28;20024;-75
2021/01/28 06:11:25;;;;;;;24.00;13.00;;;-3.00;99.90;;;;;;5071331;28;20056;-75
2021/01/28 06:14:23;;;;;;;22.45;11.35;;;-3.10;99.90;;;;;;5077085;28;20024;-75
2021/01/28 06:17:26;;;;;;;28.33;13.00;;;-3.10;99.90;;;;;;5091600;28;20024;-75
2021/01/28 06:19:54;;;;;;;27.88;12.52;;;-3.10;99.90;;;;;;5079834;28;20025;-75
2021/01/28 06:23:05;;;;;;;27.90;14.10;;;-3.10;99.90;;;;;;5071227;28;20017;-75
2021/01/28 06:25:55;;;;;;;27.13;13.35;;;-3.10;99.90;;;;;;5070991;28;20028;-75
2021/01/28 06:28:36;;;;;;;30.10;13.63;;;-3.20;99.90;;;;;;5073262;28;20027;-75
2021/01/28 06:31:28;;;;;;;34.35;14.55;;;-3.20;99.90;;;;;;5091573;28;20536;-75
2021/01/28 06:34:18;;;;;;;25.63;12.95;;;-3.10;99.90;;;;;;5091061;28;20029;-75
2021/01/28 06:37:00;;;;;;;25.45;12.85;;;-3.10;99.90;;;;;;5091438;28;20537;-75
2021/01/28 06:39:28;;;;;;;29.13;14.43;;;-3.10;99.90;;;;;;5081688;28;20033;-75
2021/01/28 06:42:04;;;;;;;27.33;13.40;;;-3.10;99.90;;;;;;5069863;28;20477;-75
2021/01/28 06:44:37;;;;;;;27.00;14.20;;;-3.00;99.90;;;;;;5070909;28;20056;-75
2021/01/28 06:47:19;;;;;;;37.83;16.08;;;-3.00;99.90;;;;;;5071495;28;20021;-76
2021/01/28 06:50:12;;;;;;;29.33;15.07;;;-2.90;99.90;;;;;;5078748;28;20043;-75
2021/01/28 06:53:07;;;;;;;24.38;12.90;;;-2.90;99.90;;;;;;5092738;28;20028;-75
2021/01/28 06:55:40;;;;;;;36.67;16.10;;;-2.80;99.90;;;;;;5094635;28;20028;-75
2021/01/28 06:58:11;;;;;;;28.75;14.50;;;-2.80;99.90;;;;;;5094255;28;20032;-75
2021/01/28 07:00:53;;;;;;;29.73;14.05;;;-2.70;99.90;;;;;;5074595;28;20104;-75
2021/01/28 07:03:28;;;;;;;30.77;14.52;;;-2.70;99.90;;;;;;5074455;28;20020;-75
2021/01/28 07:06:13;;;;;;;30.52;13.77;;;-2.80;99.90;;;;;;5089953;28;20124;-75
2021/01/28 07:09:03;;;;;;;31.55;14.85;;;-2.80;99.90;;;;;;5075809;28;20028;-75
2021/01/28 07:11:29;;;;;;;30.85;15.65;;;-2.70;99.90;;;;;;5094170;28;20028;-75
2021/01/28 07:13:55;;;;;;;31.00;14.85;;;-2.70;99.90;;;;;;5093700;28;20034;-75
2021/01/28 07:16:31;;;;;;;31.98;15.95;;;-2.70;99.90;;;;;;5093225;28;20023;-76
2021/01/28 07:19:11;;;;;;;31.42;14.35;;;-2.70;99.90;;;;;;5092988;28;20369;-75
2021/01/28 07:21:45;;;;;;;28.77;15.15;;;-2.70;99.90;;;;;;5074118;28;20120;-75
2021/01/28 07:24:28;;;;;;;30.63;15.63;;;-2.70;99.90;;;;;;5073877;28;20445;-75
2021/01/28 07:27:18;;;;;;;36.13;16.77;;;-2.60;99.90;;;;;;5074048;28;20025;-75
2021/01/28 07:29:43;;;;;;;32.92;16.13;;;-2.70;99.90;;;;;;5085035;28;20040;-75
2021/01/28 07:32:19;;;;;;;36.63;17.55;;;-2.60;99.90;;;;;;5072599;28;20090;-75
2021/01/28 07:35:23;;;;;;;36.17;16.05;;;-2.60;99.90;;;;;;5072514;28;20393;-76
2021/01/28 07:37:49;;;;;;;39.17;18.25;;;-2.50;99.90;;;;;;5072428;28;20480;-76
2021/01/28 07:40:52;;;;;;;39.78;17.95;;;-2.50;99.90;;;;;;5076126;28;20051;-76
2021/01/28 07:43:29;;;;;;;31.77;17.30;;;-2.40;99.90;;;;;;5093684;28;20024;-75
2021/01/28 07:46:16;;;;;;;37.45;17.80;;;-2.30;99.90;;;;;;5092413;28;20064;-76
2021/01/28 07:48:43;;;;;;;33.08;16.73;;;-2.30;99.90;;;;;;5093859;28;20114;-76
2021/01/28 07:51:27;;;;;;;41.47;18.55;;;-2.30;99.90;;;;;;5086221;28;20032;-76
2021/01/28 07:53:53;;;;;;;36.20;17.80;;;-2.20;99.90;;;;;;5073257;28;20107;-75
2021/01/28 07:56:39;;;;;;;38.75;17.15;;;-2.20;99.90;;;;;;5072108;28;20116;-75
2021/01/28 07:59:13;;;;;;;44.25;19.05;;;-2.20;99.90;;;;;;5079984;28;20039;-76
2021/01/28 08:01:45;;;;;;;38.38;18.10;;;-2.10;99.90;;;;;;5090320;28;20111;-75
2021/01/28 08:04:34;;;;;;;34.08;17.15;;;-2.10;99.90;;;;;;5091196;28;20031;-75
2021/01/28 08:07:04;;;;;;;35.85;17.85;;;-2.00;99.90;;;;;;5093333;28;20111;-75
2021/01/28 08:09:29;;;;;;;43.53;18.90;;;-2.00;99.90;;;;;;5084327;28;20067;-76
2021/01/28 08:11:57;;;;;;;37.58;18.30;;;-1.90;99.90;;;;;;5071591;28;20491;-75
2021/01/28 08:14:29;;;;;;;35.47;17.65;;;-1.80;99.90;;;;;;5071282;28;20036;-75
2021/01/28 08:16:56;;;;;;;47.63;18.83;;;-1.80;99.90;;;;;;5072878;28;20035;-76
2021/01/28 08:19:24;;;;;;;41.88;17.23;;;-1.80;99.90;;;;;;5077184;28;20016;-75
2021/01/28 08:22:05;;;;;;;42.30;19.25;;;-1.80;99.90;;;;;;5091734;28;20020;-75
2021/01/28 08:24:39;;;;;;;33.63;17.02;;;-1.70;99.90;;;;;;5092721;28;20039;-75
2021/01/28 08:27:40;;;;;;;39.05;16.88;;;-1.60;99.90;;;;;;5093007;28;20024;-75
2021/01/28 08:30:16;;;;;;;45.65;18.02;;;-1.60;99.90;;;;;;5064066;28;20537;-75
2021/01/28 08:32:45;;;;;;;37.33;15.68;;;-1.60;99.90;;;;;;5083365;28;20067;-75
2021/01/28 08:35:21;;;;;;;35.38;16.67;;;-1.60;99.90;;;;;;5091327;28;20032;-76
2021/01/28 08:37:46;;;;;;;32.45;15.77;;;-1.60;99.90;;;;;;5091838;28;20077;-75
2021/01/28 08:40:22;;;;;;;60.20;27.02;;;-1.60;99.90;;;;;;5075213;28;20028;-75
2021/01/28 08:42:49;;;;;;;52.13;24.60;;;-1.50;99.90;;;;;;5071744;28;20023;-75
2021/01/28 08:45:22;;;;;;;44.88;19.70;;;-1.50;99.90;;;;;;5071274;28;20044;-76
2021/01/28 08:47:58;;;;;;;42.35;20.15;;;-1.40;99.90;;;;;;5071615;28;20488;-75
2021/01/28 08:50:27;;;;;;;32.85;16.58;;;-1.40;99.90;;;;;;5084500;28;20041;-75
2021/01/28 08:53:06;;;;;;;32.60;16.77;;;-1.40;99.90;;;;;;5091933;28;20102;-75
2021/01/28 08:55:35;;;;;;;31.95;16.40;;;-1.30;99.90;;;;;;5090905;28;20039;-76
2021/01/28 08:58:31;;;;;;;31.40;15.80;;;-1.30;99.90;;;;;;5091232;28;20115;-75
2021/01/28 09:01:04;;;;;;;39.17;16.00;;;-1.30;99.90;;;;;;5074168;28;20075;-75
2021/01/28 09:03:40;;;;;;;33.55;16.85;;;-1.30;99.90;;;;;;5091159;28;20124;-75
2021/01/28 09:06:06;;;;;;;31.75;16.27;;;-1.40;99.90;;;;;;5092229;28;20020;-76
2021/01/28 09:08:33;;;;;;;31.20;15.43;;;-1.30;99.90;;;;;;5092263;28;20111;-76
2021/01/28 09:11:08;;;;;;;33.58;15.27;;;-1.30;99.90;;;;;;5092529;28;20471;-76
2021/01/28 09:13:34;;;;;;;38.72;17.50;;;-1.20;99.90;;;;;;5070663;28;20572;-76
2021/01/28 09:16:16;;;;;;;34.05;16.25;;;-1.10;99.90;;;;;;5071109;28;20041;-76
2021/01/28 09:18:51;;;;;;;38.13;17.25;;;-1.00;99.90;;;;;;5085606;28;20496;-76
2021/01/28 09:21:36;;;;;;;30.45;15.55;;;-0.80;99.90;;;;;;5086809;28;20488;-76
2021/01/28 09:24:26;;;;;;;27.17;15.13;;;-0.60;99.90;;;;;;5086511;28;20061;-77
2021/01/28 09:27:16;;;;;;;38.17;15.32;;;-0.40;99.90;;;;;;5075479;28;20055;-77
2021/01/28 09:29:44;;;;;;;37.03;16.85;;;-0.20;99.90;;;;;;5090856;28;20020;-76
2021/01/28 09:32:26;;;;;;;32.05;16.25;;;-0.10;99.90;;;;;;5091839;28;20395;-76
2021/01/28 09:35:19;;;;;;;36.17;17.10;;;0.10;99.90;;;;;;5091656;28;20052;-77
2021/01/28 09:37:59;;;;;;;29.77;13.57;;;0.20;99.90;;;;;;5090492;28;20511;-77
2021/01/28 09:40:30;;;;;;;36.45;14.30;;;0.30;99.90;;;;;;5091881;28;20032;-76
2021/01/28 09:43:17;;;;;;;21.45;12.95;;;0.30;99.90;;;;;;5091799;28;20047;-76
2021/01/28 09:45:59;;;;;;;23.33;11.95;;;0.40;99.90;;;;;;5091587;28;20543;-77
2021/01/28 09:48:25;;;;;;;29.88;12.13;;;0.50;99.90;;;;;;5091814;28;20051;-76
2021/01/28 09:50:50;;;;;;;22.40;10.70;;;0.50;99.90;;;;;;5091727;28;20373;-75
2021/01/28 09:53:16;;;;;;;17.95;9.77;;;0.50;99.90;;;;;;5090436;28;20024;-76
2021/01/28 09:55:42;;;;;;;16.58;9.40;;;0.50;99.90;;;;;;5091585;28;20074;-77
2021/01/28 09:58:08;;;;;;;23.00;10.07;;;0.50;99.90;;;;;;5090294;28;20056;-76
2021/01/28 10:00:33;;;;;;;18.10;9.18;;;0.30;99.90;;;;;;5091323;28;20095;-76
2021/01/28 10:03:01;;;;;;;22.33;8.15;;;0.30;99.90;;;;;;5091510;28;20054;-77
2021/01/28 10:05:29;;;;;;;18.42;8.18;;;0.20;99.90;;;;;;5091429;28;20023;-77
2021/01/28 10:07:56;;;;;;;9.02;5.72;;;0.20;99.90;;;;;;5091638;28;20028;-76
2021/01/28 10:10:27;;;;;;;10.45;5.45;;;0.10;99.90;;;;;;5078895;28;20036;-76
2021/01/28 10:12:55;;;;;;;11.93;5.32;;;0.00;99.90;;;;;;5082825;28;20543;-76
2021/01/28 10:15:24;;;;;;;12.43;6.57;;;0.10;99.90;;;;;;5079200;28;20031;-76
2021/01/28 10:17:50;;;;;;;11.27;6.07;;;0.00;99.90;;;;;;5111747;28;20019;-77
2021/01/28 10:20:16;;;;;;;12.93;5.60;;;0.10;99.90;;;;;;5111299;28;20027;-76
2021/01/28 10:22:42;;;;;;;14.02;6.05;;;0.20;99.90;;;;;;5110489;28;20034;-77
2021/01/28 10:25:11;;;;;;;15.63;6.32;;;0.20;99.90;;;;;;5109896;28;20055;-77
2021/01/28 10:27:37;;;;;;;17.83;7.25;;;0.30;99.90;;;;;;5108481;28;20480;-77
2021/01/28 10:30:05;;;;;;;14.50;5.78;;;0.40;99.90;;;;;;5093374;28;20114;-77
2021/01/28 10:32:31;;;;;;;16.02;5.68;;;0.40;99.90;;;;;;5113994;28;20027;-77
2021/01/28 10:34:56;;;;;;;10.35;6.32;;;0.40;99.90;;;;;;5113964;28;20024;-76
2021/01/28 10:37:22;;;;;;;22.10;5.63;;;0.50;99.90;;;;;;5115266;28;20028;-76
2021/01/28 10:39:47;;;;;;;11.15;6.88;;;0.50;99.90;;;;;;5114925;28;20027;-76
2021/01/28 10:42:19;;;;;;;9.40;5.30;;;0.50;99.90;;;;;;5115439;28;20024;-76
2021/01/28 10:44:47;;;;;;;16.75;5.90;;;0.60;99.90;;;;;;5113732;28;20019;-76
2021/01/28 10:47:13;;;;;;;21.58;6.38;;;0.60;99.90;;;;;;5115275;28;20020;-76
2021/01/28 10:49:39;;;;;;;9.32;4.75;;;0.70;99.90;;;;;;5115001;28;20035;-76
2021/01/28 10:52:04;;;;;;;11.57;5.38;;;0.70;99.90;;;;;;5113674;28;20440;-76
2021/01/28 10:54:30;;;;;;;9.27;5.20;;;0.70;99.90;;;;;;5114816;27;20494;-76
2021/01/28 10:56:55;;;;;;;13.70;5.60;;;0.70;99.90;;;;;;5114964;28;20391;-76
2021/01/28 10:59:21;;;;;;;11.35;5.30;;;0.70;99.90;;;;;;5113596;28;20015;-76
2021/01/28 11:01:46;;;;;;;10.02;4.50;;;0.60;99.90;;;;;;5114773;28;20074;-76
2021/01/28 11:04:12;;;;;;;18.13;5.95;;;0.60;99.90;;;;;;5094404;28;20024;-76
2021/01/28 11:06:38;;;;;;;10.80;5.15;;;0.60;99.90;;;;;;5093247;28;20093;-76
2021/01/28 11:09:04;;;;;;;8.38;4.60;;;0.70;99.90;;;;;;5094133;28;20066;-76
2021/01/28 11:11:29;;;;;;;10.95;4.57;;;0.80;99.90;;;;;;5094258;28;20115;-76
2021/01/28 11:13:56;;;;;;;10.63;5.28;;;0.80;99.90;;;;;;5078759;28;20343;-76
2021/01/28 11:16:26;;;;;;;9.38;4.88;;;0.80;99.90;;;;;;5074160;28;20021;-76
2021/01/28 11:18:54;;;;;;;8.93;4.82;;;0.80;99.90;;;;;;5072542;28;20435;-76
2021/01/28 11:21:21;;;;;;;8.98;4.82;;;0.80;99.90;;;;;;5073645;28;20013;-77
2021/01/28 11:23:47;;;;;;;21.13;6.00;;;0.80;99.90;;;;;;5072573;28;20384;-76
2021/01/28 11:26:12;;;;;;;10.35;4.78;;;0.80;99.90;;;;;;5072545;28;20052;-76
2021/01/28 11:28:38;;;;;;;9.77;4.57;;;0.80;99.90;;;;;;5074042;28;20492;-76
2021/01/28 11:31:04;;;;;;;8.32;4.63;;;0.90;99.90;;;;;;5072645;28;20086;-76
2021/01/28 11:33:32;;;;;;;8.80;4.40;;;1.00;99.90;;;;;;5072407;28;20024;-76
2021/01/28 11:35:58;;;;;;;10.77;5.05;;;1.00;99.90;;;;;;5087990;28;20036;-76
2021/01/28 11:38:23;;;;;;;10.00;4.38;;;1.00;99.90;;;;;;5093075;28;20434;-77
2021/01/28 11:40:49;;;;;;;8.25;4.53;;;1.10;99.90;;;;;;5092494;28;20028;-77
2021/01/28 11:43:15;;;;;;;13.52;4.50;;;1.20;99.90;;;;;;5091795;28;20024;-77
2021/01/28 11:45:40;;;;;;;10.27;4.53;;;1.30;99.90;;;;;;5093640;28;20059;-77
2021/01/28 11:48:06;;;;;;;11.30;4.30;;;1.30;99.90;;;;;;5093727;28;20020;-77
2021/01/28 11:50:32;;;;;;;11.48;4.95;;;1.40;99.90;;;;;;5093154;28;20028;-77
2021/01/28 11:52:57;;;;;;;14.57;4.57;;;1.50;99.90;;;;;;5093521;28;20049;-77
2021/01/28 11:55:25;;;;;;;6.63;4.20;;;1.60;99.90;;;;;;5093417;28;20050;-77
2021/01/28 11:57:51;;;;;;;9.48;5.25;;;1.50;99.90;;;;;;5093391;28;20146;-77
2021/01/28 12:00:18;;;;;;;10.02;4.95;;;1.60;99.90;;;;;;5093088;28;20031;-77
2021/01/28 12:02:44;;;;;;;15.38;4.70;;;1.50;99.90;;;;;;5092051;28;20115;-77
2021/01/28 12:05:12;;;;;;;14.57;4.63;;;1.40;99.90;;;;;;5093015;28;20108;-77
2021/01/28 12:07:38;;;;;;;14.68;4.25;;;1.40;99.90;;;;;;5091113;28;20100;-77
2021/01/28 12:10:07;;;;;;;7.65;4.15;;;1.40;99.90;;;;;;5092986;28;20059;-77
2021/01/28 12:12:33;;;;;;;13.13;3.95;;;1.40;99.90;;;;;;5091812;28;20016;-77
2021/01/28 12:14:58;;;;;;;8.07;3.97;;;1.50;99.90;;;;;;5093040;28;20618;-77
2021/01/28 12:17:24;;;;;;;20.23;4.93;;;1.60;99.90;;;;;;5092902;28;20479;-77
2021/01/28 12:19:50;;;;;;;17.48;4.40;;;1.70;99.90;;;;;;5092604;28;20113;-77
2021/01/28 12:22:15;;;;;;;9.00;4.68;;;1.60;99.90;;;;;;5093006;28;20030;-77
2021/01/28 12:24:41;;;;;;;8.32;3.97;;;1.60;99.90;;;;;;5092581;28;20028;-78
2021/01/28 12:27:07;;;;;;;12.88;4.45;;;1.60;99.90;;;;;;5092965;28;20085;-77
2021/01/28 12:29:32;;;;;;;8.93;3.90;;;1.60;99.90;;;;;;5091324;28;20024;-77
2021/01/28 12:31:58;;;;;;;12.20;4.68;;;1.60;99.90;;;;;;5091491;28;20028;-76
2021/01/28 12:34:26;;;;;;;19.25;3.80;;;1.50;99.90;;;;;;5092400;28;20032;-77
2021/01/28 12:36:52;;;;;;;9.98;4.00;;;1.50;99.90;;;;;;5091474;28;20024;-77
2021/01/28 12:39:18;;;;;;;10.73;3.80;;;1.50;99.90;;;;;;5091581;28;20048;-76
2021/01/28 12:41:43;;;;;;;12.70;3.85;;;1.60;99.90;;;;;;5091249;28;20094;-77
2021/01/28 12:44:09;;;;;;;10.68;4.38;;;1.50;99.90;;;;;;5092418;28;20024;-77
2021/01/28 12:46:34;;;;;;;16.23;4.45;;;1.40;99.90;;;;;;5092448;28;20047;-77
2021/01/28 12:49:00;;;;;;;14.13;4.55;;;1.30;99.90;;;;;;5092082;28;20024;-77
2021/01/28 12:51:26;;;;;;;13.70;3.92;;;1.30;99.90;;;;;;5092309;28;20020;-77
2021/01/28 12:53:51;;;;;;;14.50;5.43;;;1.40;99.90;;;;;;5092207;28;20472;-77
2021/01/28 12:56:17;;;;;;;11.70;4.90;;;1.40;99.90;;;;;;5092494;28;20020;-77